Time;durP1;ratioP1;P1;durP2;ratioP2;P2;SDS_P1;SDS_P2;PMS_P1;PMS_P2;Temp;Humidity;BMP_temperature;BMP_pressure;BME280_temperature;BME280_humidity;BME280_pressure;Samples;Min_cycle;Max_cycle;Signal;HPM_P1;HPM_P2
2021/03/02 00:02:02;;;;;;;33.90;19.48;;;5.20;99.90;;;;;;5072566;28;20021;-89
2021/03/02 00:04:28;;;;;;;43.85;23.00;;;5.10;99.90;;;;;;5068713;28;20021;-89
2021/03/02 00:06:54;;;;;;;40.38;23.40;;;5.10;99.90;;;;;;5066880;28;20033;-89
2021/03/02 00:09:21;;;;;;;42.58;24.05;;;5.10;99.90;;;;;;5063124;28;20053;-88
2021/03/02 00:11:51;;;;;;;46.10;24.67;;;5.10;99.90;;;;;;5071463;28;20020;-88
2021/03/02 00:14:17;;;;;;;;;;;5.10;99.90;;;;;;5062842;28;20032;-88
2021/03/02 00:16:48;;;;;;;42.53;21.98;;;5.00;99.90;;;;;;5065915;28;19904;-86
2021/03/02 00:19:14;;;;;;;38.85;21.05;;;4.90;99.90;;;;;;5069639;28;20043;-86
2021/03/02 00:21:49;;;;;;;43.90;22.75;;;4.90;99.90;;;;;;5059406;28;20017;-89
2021/03/02 00:24:23;;;;;;;37.78;20.88;;;5.00;99.90;;;;;;5066286;28;20029;-88
2021/03/02 00:26:55;;;;;;;36.78;20.77;;;5.00;99.90;;;;;;5058947;28;20033;-86
2021/03/02 00:29:21;;;;;;;43.30;21.95;;;4.90;99.90;;;;;;5068803;28;20139;-85
2021/03/02 00:31:48;;;;;;;52.65;25.90;;;4.90;99.90;;;;;;5061975;28;20107;-88
2021/03/02 00:34:14;;;;;;;45.70;24.17;;;4.90;99.90;;;;;;5059816;28;20072;-88
2021/03/02 00:36:40;;;;;;;47.78;25.17;;;4.80;99.90;;;;;;5057145;28;20052;-88
2021/03/02 00:39:05;;;;;;;42.80;22.45;;;4.80;99.90;;;;;;5069633;28;20024;-89
2021/03/02 00:41:31;;;;;;;36.72;20.20;;;4.80;99.90;;;;;;5070128;28;20028;-90
2021/03/02 00:43:57;;;;;;;47.17;24.27;;;4.80;99.90;;;;;;5075440;28;20155;-89
2021/03/02 00:46:23;;;;;;;42.55;23.02;;;4.80;99.90;;;;;;5081440;28;20028;-89
2021/03/02 00:48:49;;;;;;;37.10;20.98;;;4.80;99.90;;;;;;5067784;28;20543;-90
2021/03/02 00:51:15;;;;;;;56.55;27.15;;;4.70;99.90;;;;;;5074409;28;20047;-90
2021/03/02 00:53:40;;;;;;;44.28;23.50;;;4.70;99.90;;;;;;5068696;28;20017;-86
2021/03/02 00:56:06;;;;;;;41.65;22.75;;;4.70;99.90;;;;;;5068405;28;20127;-88
2021/03/02 00:58:32;;;;;;;42.85;23.63;;;4.70;99.90;;;;;;5060009;28;20057;-88
2021/03/02 01:00:57;;;;;;;49.85;25.23;;;4.60;99.90;;;;;;5065547;28;20056;-89
2021/03/02 01:03:23;;;;;;;46.42;23.90;;;4.60;99.90;;;;;;5069448;28;20055;-89
2021/03/02 01:05:48;;;;;;;53.33;25.33;;;4.50;99.90;;;;;;5063992;28;20033;-87
2021/03/02 01:08:14;;;;;;;40.60;22.05;;;4.50;99.90;;;;;;5063821;28;20120;-89
2021/03/02 01:10:40;;;;;;;44.42;23.70;;;4.50;99.90;;;;;;5063210;28;20492;-90
2021/03/02 01:13:05;;;;;;;43.42;22.77;;;4.40;99.90;;;;;;5065569;28;20464;-88
2021/03/02 01:15:31;;;;;;;44.70;23.67;;;4.30;99.90;;;;;;5071591;28;20472;-89
2021/03/02 01:17:56;;;;;;;43.08;21.95;;;4.30;99.90;;;;;;5071895;28;20081;-91
2021/03/02 01:20:22;;;;;;;39.08;19.60;;;4.30;99.90;;;;;;5096518;28;20098;-90
2021/03/02 01:22:48;;;;;;;45.75;23.52;;;4.30;99.90;;;;;;5072055;28;20025;-89
2021/03/02 01:25:14;;;;;;;46.72;23.10;;;4.40;99.90;;;;;;5060963;28;20036;-89
2021/03/02 01:27:40;;;;;;;41.90;21.92;;;4.30;99.90;;;;;;5066534;28;20675;-89
2021/03/02 01:30:08;;;;;;;40.03;22.13;;;4.30;99.90;;;;;;5063330;28;20055;-90
2021/03/02 01:32:33;;;;;;;53.25;25.48;;;4.30;99.90;;;;;;5068187;28;20025;-89
2021/03/02 01:34:59;;;;;;;43.70;22.65;;;4.30;99.90;;;;;;5066760;28;20025;-89
2021/03/02 01:37:24;;;;;;;39.25;20.73;;;4.30;99.90;;;;;;5061335;28;20029;-91
2021/03/02 01:39:50;;;;;;;35.10;18.88;;;4.30;99.90;;;;;;5059437;28;20032;-90
2021/03/02 01:42:15;;;;;;;34.78;19.48;;;4.20;99.90;;;;;;5062754;28;20028;-93
2021/03/02 01:44:41;;;;;;;38.67;21.15;;;4.20;99.90;;;;;;5068082;28;20032;-91
2021/03/02 01:47:06;;;;;;;41.28;21.88;;;4.20;99.90;;;;;;5066554;28;20020;-88
2021/03/02 01:49:33;;;;;;;46.38;23.58;;;4.20;99.90;;;;;;5063911;28;20055;-88
2021/03/02 01:51:59;;;;;;;39.92;22.23;;;4.10;99.90;;;;;;5064447;28;20024;-89
2021/03/02 01:54:24;;;;;;;46.55;23.33;;;4.10;99.90;;;;;;5060895;28;20471;-88
2021/03/02 01:56:50;;;;;;;45.33;23.70;;;4.10;99.90;;;;;;5056668;28;20056;-88
2021/03/02 01:59:18;;;;;;;46.58;24.60;;;4.10;99.90;;;;;;5061956;28;20033;-89
2021/03/02 02:01:44;;;;;;;39.55;20.77;;;4.00;99.90;;;;;;5092195;28;20113;-90
2021/03/02 02:04:23;;;;;;;50.72;25.40;;;4.00;99.90;;;;;;5063865;28;20055;-90
2021/03/02 02:07:14;;;;;;;49.17;24.52;;;4.00;99.90;;;;;;5074378;28;20028;-89
2021/03/02 02:09:58;;;;;;;41.88;21.90;;;4.00;99.90;;;;;;5066467;28;20553;-89
2021/03/02 02:12:35;;;;;;;52.78;24.30;;;3.90;99.90;;;;;;5059266;28;20029;-91
2021/03/02 02:15:27;;;;;;;44.17;21.92;;;3.90;99.90;;;;;;5065240;28;20017;-90
2021/03/02 02:18:03;;;;;;;48.08;24.00;;;3.90;99.90;;;;;;5068450;28;20012;-91
2021/03/02 02:20:38;;;;;;;43.38;21.50;;;3.90;99.90;;;;;;5065169;28;20153;-91
2021/03/02 02:23:38;;;;;;;42.83;22.52;;;3.90;99.90;;;;;;5082497;28;20512;-91
2021/03/02 02:26:18;;;;;;;50.63;25.80;;;3.90;99.90;;;;;;5068340;28;20464;-90
2021/03/02 02:28:44;;;;;;;;;;;3.90;99.90;;;;;;5074611;28;20488;-90
2021/03/02 02:31:11;;;;;;;48.50;23.48;;;3.80;99.90;;;;;;5075764;28;20001;-90
2021/03/02 02:33:39;;;;;;;41.35;21.13;;;3.80;99.90;;;;;;5062420;28;20028;-92
2021/03/02 02:36:08;;;;;;;42.70;22.30;;;3.80;99.90;;;;;;5055974;28;20469;-92
2021/03/02 02:38:36;;;;;;;35.75;19.00;;;3.90;99.90;;;;;;5092608;28;20063;-92
2021/03/02 02:41:04;;;;;;;48.50;24.73;;;3.90;99.90;;;;;;5059881;28;20017;-91
2021/03/02 02:43:31;;;;;;;44.20;24.10;;;3.90;99.90;;;;;;5059899;28;20536;-91
2021/03/02 02:45:57;;;;;;;42.25;21.67;;;3.90;99.90;;;;;;5058438;28;20021;-92
2021/03/02 02:48:23;;;;;;;44.83;22.98;;;3.80;99.90;;;;;;5066899;28;20368;-92
2021/03/02 02:50:52;;;;;;;51.80;26.63;;;3.90;99.90;;;;;;5069343;28;20020;-91
2021/03/02 02:53:19;;;;;;;42.75;22.30;;;3.80;99.90;;;;;;5071298;28;20028;-91
2021/03/02 02:55:55;;;;;;;40.75;20.48;;;3.90;99.90;;;;;;5066730;28;20483;-91
2021/03/02 02:58:24;;;;;;;44.60;23.15;;;3.90;99.90;;;;;;5064122;28;20029;-92
2021/03/02 03:00:51;;;;;;;46.70;22.63;;;3.80;99.90;;;;;;5063529;28;20021;-91
2021/03/02 03:03:22;;;;;;;43.90;21.38;;;3.80;99.90;;;;;;5068342;28;20024;-91
2021/03/02 03:05:52;;;;;;;40.65;19.85;;;3.90;99.90;;;;;;5067909;28;20021;-91
2021/03/02 03:08:20;;;;;;;51.47;24.52;;;3.80;99.90;;;;;;5073857;28;20035;-90
2021/03/02 03:10:49;;;;;;;41.28;21.30;;;3.80;99.90;;;;;;5096827;28;20027;-92
2021/03/02 03:13:20;;;;;;;35.22;18.88;;;3.80;99.90;;;;;;5060969;28;20025;-91
2021/03/02 03:15:51;;;;;;;37.20;19.02;;;3.70;99.90;;;;;;5070475;28;20013;-91
2021/03/02 03:18:22;;;;;;;43.13;21.88;;;3.70;99.90;;;;;;5068054;28;20059;-91
2021/03/02 03:20:51;;;;;;;42.97;21.63;;;3.70;99.90;;;;;;5063750;28;20025;-91
2021/03/02 03:23:19;;;;;;;40.70;20.40;;;3.60;99.90;;;;;;5067231;28;20024;-91
2021/03/02 03:25:45;;;;;;;35.65;19.33;;;3.60;99.90;;;;;;5063694;28;20025;-90
2021/03/02 03:28:15;;;;;;;43.45;22.48;;;3.60;99.90;;;;;;5067932;28;20535;-91
2021/03/02 03:30:41;;;;;;;36.28;19.63;;;3.60;99.90;;;;;;5071880;28;20070;-92
2021/03/02 03:33:09;;;;;;;51.58;25.17;;;3.60;99.90;;;;;;5068921;28;20021;-91
2021/03/02 03:35:36;;;;;;;47.70;23.75;;;3.60;99.90;;;;;;5066587;28;20069;-91
2021/03/02 03:38:02;;;;;;;50.22;24.70;;;3.50;99.90;;;;;;5060788;28;20025;-90
2021/03/02 03:40:29;;;;;;;44.55;21.05;;;3.50;99.90;;;;;;5062928;28;20032;-91
2021/03/02 03:42:54;;;;;;;46.17;23.00;;;3.60;99.90;;;;;;5065193;28;20033;-90
2021/03/02 03:45:20;;;;;;;35.97;19.40;;;3.60;99.90;;;;;;5062764;28;20597;-90
2021/03/02 03:47:46;;;;;;;46.80;24.48;;;3.60;99.90;;;;;;5060112;28;20029;-90
2021/03/02 03:50:13;;;;;;;40.20;21.00;;;3.50;99.90;;;;;;5060182;28;20025;-91
2021/03/02 03:52:42;;;;;;;48.85;24.40;;;3.60;99.90;;;;;;5060520;28;20373;-91
2021/03/02 03:55:10;;;;;;;42.95;22.08;;;3.50;99.90;;;;;;5061347;28;20021;-90
2021/03/02 03:57:38;;;;;;;50.67;25.13;;;3.50;99.90;;;;;;5060826;28;20048;-90
2021/03/02 04:00:05;;;;;;;42.17;21.17;;;3.50;99.90;;;;;;5065777;28;20031;-91
2021/03/02 04:02:32;;;;;;;47.33;23.27;;;3.50;99.90;;;;;;5061858;28;20012;-89
2021/03/02 04:05:00;;;;;;;40.53;20.08;;;3.50;99.90;;;;;;5064487;28;20056;-90
2021/03/02 04:07:26;;;;;;;44.42;22.65;;;3.40;99.90;;;;;;5065868;28;20033;-90
2021/03/02 04:09:52;;;;;;;50.17;23.35;;;3.40;99.90;;;;;;5069179;28;20387;-91
2021/03/02 04:12:18;;;;;;;48.58;24.75;;;3.40;99.90;;;;;;5069503;28;20502;-90
2021/03/02 04:14:43;;;;;;;56.88;26.77;;;3.40;99.90;;;;;;5061684;28;20060;-90
2021/03/02 04:17:12;;;;;;;46.85;24.50;;;3.40;99.90;;;;;;5066542;28;20052;-89
2021/03/02 04:19:38;;;;;;;52.17;23.38;;;3.40;99.90;;;;;;5063927;28;20480;-90
2021/03/02 04:22:04;;;;;;;42.45;21.67;;;3.40;99.90;;;;;;5063606;28;20032;-91
2021/03/02 04:24:30;;;;;;;52.70;25.02;;;3.30;99.90;;;;;;5067293;28;20115;-91
2021/03/02 04:26:56;;;;;;;50.35;24.95;;;3.30;99.90;;;;;;5074637;28;20036;-91
2021/03/02 04:29:21;;;;;;;46.75;23.90;;;3.30;99.90;;;;;;5075156;28;20016;-90
2021/03/02 04:31:47;;;;;;;52.88;25.27;;;3.30;99.90;;;;;;5065813;28;20049;-90
2021/03/02 04:34:12;;;;;;;45.85;22.05;;;3.30;99.90;;;;;;5070945;28;20017;-92
2021/03/02 04:36:38;;;;;;;37.88;19.40;;;3.30;99.90;;;;;;5068632;28;20476;-91
2021/03/02 04:39:04;;;;;;;39.70;19.25;;;3.20;99.90;;;;;;5069676;28;20025;-90
2021/03/02 04:41:29;;;;;;;35.50;18.40;;;3.20;99.90;;;;;;5065892;28;20035;-90
2021/03/02 04:43:55;;;;;;;42.55;21.73;;;3.20;99.90;;;;;;5064790;28;20021;-90
2021/03/02 04:46:21;;;;;;;45.75;22.85;;;3.20;99.90;;;;;;5064321;28;20056;-90
2021/03/02 04:48:47;;;;;;;37.78;20.23;;;3.20;99.90;;;;;;5066302;28;20488;-89
2021/03/02 04:51:14;;;;;;;59.38;27.77;;;3.20;99.90;;;;;;5067674;28;20480;-91
2021/03/02 04:53:39;;;;;;;57.90;26.85;;;3.20;99.90;;;;;;5063119;28;20111;-89
2021/03/02 04:56:05;;;;;;;56.70;27.33;;;3.10;99.90;;;;;;5060607;28;20131;-88
2021/03/02 04:58:31;;;;;;;46.88;22.70;;;3.10;99.90;;;;;;5066137;28;20529;-90
2021/03/02 05:00:56;;;;;;;41.17;19.77;;;3.10;99.90;;;;;;5066677;28;20048;-90
2021/03/02 05:03:22;;;;;;;42.95;21.75;;;3.10;99.90;;;;;;5065791;28;20024;-90
2021/03/02 05:05:47;;;;;;;50.72;23.45;;;3.10;99.90;;;;;;5062824;28;20063;-89
2021/03/02 05:08:13;;;;;;;45.40;22.48;;;3.10;99.90;;;;;;5061936;28;20083;-88
2021/03/02 05:10:38;;;;;;;35.55;18.77;;;3.10;99.90;;;;;;5070655;28;20074;-89
2021/03/02 05:13:04;;;;;;;39.75;19.55;;;3.10;99.90;;;;;;5061132;28;20108;-89
2021/03/02 05:15:29;;;;;;;39.75;20.27;;;3.10;99.90;;;;;;5068810;28;20468;-90
2021/03/02 05:17:55;;;;;;;37.38;18.35;;;3.10;99.90;;;;;;5059819;28;20361;-89
2021/03/02 05:20:20;;;;;;;52.50;25.55;;;3.00;99.90;;;;;;5065114;28;20104;-89
2021/03/02 05:22:46;;;;;;;50.15;23.98;;;3.00;99.90;;;;;;5064729;28;20056;-89
2021/03/02 05:25:12;;;;;;;43.78;22.73;;;3.00;99.90;;;;;;5064334;28;20547;-88
2021/03/02 05:27:37;;;;;;;43.25;21.45;;;3.00;99.90;;;;;;5061207;28;20048;-90
2021/03/02 05:30:03;;;;;;;41.35;21.15;;;3.00;99.90;;;;;;5060330;28;20012;-89
2021/03/02 05:32:29;;;;;;;43.85;22.55;;;3.00;99.90;;;;;;5065648;28;20025;-89
2021/03/02 05:34:55;;;;;;;46.53;22.33;;;3.00;99.90;;;;;;5059240;28;20035;-89
2021/03/02 05:37:23;;;;;;;42.83;22.10;;;2.90;99.90;;;;;;5061827;28;20468;-89
2021/03/02 05:39:49;;;;;;;43.35;21.63;;;3.00;99.90;;;;;;5067400;28;20032;-89
2021/03/02 05:42:14;;;;;;;45.53;21.85;;;3.00;99.90;;;;;;5058130;28;20029;-88
2021/03/02 05:44:40;;;;;;;39.50;19.50;;;2.90;99.90;;;;;;5055421;28;20083;-90
2021/03/02 05:47:08;;;;;;;48.83;23.95;;;2.90;99.90;;;;;;5064832;28;20031;-91
2021/03/02 05:49:34;;;;;;;40.97;20.35;;;2.90;99.90;;;;;;5064517;28;20059;-90
2021/03/02 05:52:00;;;;;;;36.42;19.02;;;2.90;99.90;;;;;;5064682;28;20012;-91
2021/03/02 05:54:26;;;;;;;43.30;22.10;;;2.90;99.90;;;;;;5059475;28;20027;-89
2021/03/02 05:56:51;;;;;;;42.20;20.83;;;2.90;99.90;;;;;;5059928;28;20041;-90
2021/03/02 05:59:17;;;;;;;44.92;23.13;;;2.80;99.90;;;;;;5061286;28;20031;-90
2021/03/02 06:01:43;;;;;;;39.53;18.80;;;2.80;99.90;;;;;;5070471;28;20020;-90
2021/03/02 06:04:15;;;;;;;40.90;19.98;;;2.80;99.90;;;;;;5068106;28;20055;-90
2021/03/02 06:06:40;;;;;;;37.38;18.58;;;2.80;99.90;;;;;;5069529;28;20082;-91
2021/03/02 06:09:06;;;;;;;35.95;17.33;;;2.90;99.90;;;;;;5073016;28;20479;-90
2021/03/02 06:11:35;;;;;;;38.00;19.35;;;2.80;99.90;;;;;;5067749;28;20123;-89
2021/03/02 06:14:21;;;;;;;44.97;20.55;;;2.80;99.90;;;;;;5063010;28;20017;-90
2021/03/02 06:16:48;;;;;;;42.22;21.90;;;2.80;99.90;;;;;;5059250;28;20434;-89
2021/03/02 06:19:14;;;;;;;46.20;23.55;;;2.70;99.90;;;;;;5066045;28;20036;-88
2021/03/02 06:21:41;;;;;;;42.75;21.40;;;2.70;99.90;;;;;;5063538;28;20085;-88
2021/03/02 06:24:07;;;;;;;51.88;24.23;;;2.60;99.90;;;;;;5063094;28;20033;-89
2021/03/02 06:26:34;;;;;;;43.42;21.13;;;2.60;99.90;;;;;;5063505;28;20492;-87
2021/03/02 06:29:12;;;;;;;40.80;20.60;;;2.60;99.90;;;;;;5067856;28;20020;-89
2021/03/02 06:31:46;;;;;;;41.63;20.33;;;2.70;99.90;;;;;;5060638;28;20021;-90
2021/03/02 06:34:16;;;;;;;39.88;19.27;;;2.70;99.90;;;;;;5068935;28;20028;-89
2021/03/02 06:36:53;;;;;;;46.15;21.33;;;2.70;99.90;;;;;;5063481;28;20021;-88
2021/03/02 06:39:23;;;;;;;44.67;21.55;;;2.70;99.90;;;;;;5071976;28;20025;-88
2021/03/02 06:42:08;;;;;;;47.63;22.50;;;2.70;99.90;;;;;;5056206;28;20021;-91
2021/03/02 06:44:34;;;;;;;45.83;22.48;;;2.70;99.90;;;;;;5070792;28;20051;-90
2021/03/02 06:46:59;;;;;;;51.30;23.90;;;2.70;99.90;;;;;;5075408;28;20555;-90
2021/03/02 06:49:44;;;;;;;44.85;21.52;;;2.70;99.90;;;;;;5074007;28;20099;-90
2021/03/02 06:52:18;;;;;;;37.40;19.10;;;2.80;99.90;;;;;;5072312;28;20021;-89
2021/03/02 06:54:45;;;;;;;38.35;19.83;;;2.70;99.90;;;;;;5086406;28;20481;-90
2021/03/02 06:57:11;;;;;;;38.92;19.63;;;2.70;99.90;;;;;;5086137;28;20048;-89
2021/03/02 06:59:36;;;;;;;39.95;20.08;;;2.80;99.90;;;;;;5054342;28;20062;-89
2021/03/02 07:02:02;;;;;;;41.28;20.27;;;2.80;99.90;;;;;;5054594;28;20067;-89
2021/03/02 07:04:29;;;;;;;42.35;20.60;;;2.80;99.90;;;;;;5086951;28;20500;-90
2021/03/02 07:07:00;;;;;;;39.97;21.77;;;2.80;99.90;;;;;;5086319;28;20029;-89
2021/03/02 07:09:27;;;;;;;40.45;20.17;;;2.90;99.90;;;;;;5052867;28;20115;-89
2021/03/02 07:11:56;;;;;;;46.17;22.27;;;2.90;99.90;;;;;;5068787;28;20048;-88
2021/03/02 07:14:24;;;;;;;41.67;21.20;;;2.90;99.90;;;;;;5077933;28;20426;-88
2021/03/02 07:16:50;;;;;;;42.03;20.20;;;2.90;99.90;;;;;;5079681;28;20024;-90
2021/03/02 07:19:21;;;;;;;44.38;21.30;;;2.90;99.90;;;;;;5083737;28;20074;-89
2021/03/02 07:21:57;;;;;;;44.45;22.58;;;3.00;99.90;;;;;;5079714;28;20051;-89
2021/03/02 07:24:26;;;;;;;48.10;22.98;;;3.00;99.90;;;;;;5073797;28;20025;-87
2021/03/02 07:26:53;;;;;;;42.28;21.50;;;3.00;99.90;;;;;;5083983;28;20077;-84
2021/03/02 07:29:18;;;;;;;42.60;21.35;;;3.00;99.90;;;;;;5092028;28;20024;-84
2021/03/02 07:31:44;;;;;;;45.70;22.15;;;3.00;99.90;;;;;;5083285;28;20503;-83
2021/03/02 07:34:11;;;;;;;54.83;26.35;;;3.10;99.90;;;;;;5080549;28;20073;-83
2021/03/02 07:36:42;;;;;;;51.45;25.50;;;3.10;99.90;;;;;;5079734;28;20103;-83
2021/03/02 07:39:17;;;;;;;53.60;25.92;;;3.20;99.90;;;;;;5071753;28;20038;-83
2021/03/02 07:41:44;;;;;;;57.90;28.95;;;3.20;99.90;;;;;;5070381;28;20082;-83
2021/03/02 07:44:09;;;;;;;47.97;25.60;;;3.30;99.90;;;;;;5070457;28;20032;-84
2021/03/02 07:46:39;;;;;;;64.68;30.27;;;3.30;99.90;;;;;;5081684;28;20024;-86
2021/03/02 07:49:23;;;;;;;55.28;27.33;;;3.40;99.90;;;;;;5094343;28;20031;-84
2021/03/02 07:52:00;;;;;;;55.38;28.10;;;3.40;99.90;;;;;;5092619;28;20039;-86
2021/03/02 07:54:33;;;;;;;60.90;28.73;;;3.50;99.90;;;;;;5095821;28;20020;-84
2021/03/02 07:57:14;;;;;;;60.25;29.58;;;3.50;99.90;;;;;;5093593;28;20063;-85
2021/03/02 07:59:41;;;;;;;55.38;28.17;;;3.60;99.90;;;;;;5097092;28;20028;-85
2021/03/02 08:02:22;;;;;;;64.28;30.52;;;3.60;99.90;;;;;;5095131;28;20024;-85
2021/03/02 08:04:49;;;;;;;63.20;31.35;;;3.80;99.90;;;;;;5108185;28;20025;-85
2021/03/02 08:07:28;;;;;;;55.67;27.05;;;3.80;99.90;;;;;;5096340;28;20032;-84
2021/03/02 08:09:58;;;;;;;54.10;27.52;;;3.90;99.90;;;;;;5091328;28;20058;-84
2021/03/02 08:12:30;;;;;;;49.08;26.17;;;3.90;99.90;;;;;;5083633;28;20027;-84
2021/03/02 08:14:56;;;;;;;56.08;28.55;;;4.00;99.90;;;;;;5083835;28;20027;-84
2021/03/02 08:17:23;;;;;;;52.85;26.00;;;4.10;99.90;;;;;;5083714;28;20021;-84
2021/03/02 08:19:59;;;;;;;48.75;25.67;;;4.20;99.90;;;;;;5086584;28;20042;-85
2021/03/02 08:22:26;;;;;;;53.03;28.55;;;4.30;99.90;;;;;;5085684;28;20016;-84
2021/03/02 08:25:02;;;;;;;56.75;29.08;;;4.30;99.90;;;;;;5085732;28;20103;-85
2021/03/02 08:27:48;;;;;;;54.47;27.90;;;4.50;99.90;;;;;;5081203;28;20077;-84
2021/03/02 08:30:33;;;;;;;48.55;25.33;;;4.60;99.90;;;;;;5083163;28;20038;-85
2021/03/02 08:33:05;;;;;;;48.50;25.30;;;4.70;99.90;;;;;;5084607;28;20056;-85
2021/03/02 08:35:35;;;;;;;42.38;23.85;;;4.80;99.90;;;;;;5083546;28;20024;-85
2021/03/02 08:38:06;;;;;;;40.13;22.30;;;4.80;99.90;;;;;;5083491;28;20572;-85
2021/03/02 08:40:31;;;;;;;49.42;26.60;;;4.90;99.90;;;;;;5078156;28;20098;-86
2021/03/02 08:43:10;;;;;;;39.45;22.08;;;5.00;99.90;;;;;;5089761;28;20503;-85
2021/03/02 08:45:39;;;;;;;43.40;24.50;;;5.10;99.90;;;;;;5056678;28;20051;-84
2021/03/02 08:48:16;;;;;;;43.40;24.80;;;5.20;99.90;;;;;;5067470;28;20032;-83
2021/03/02 08:50:42;;;;;;;39.90;21.70;;;5.30;99.90;;;;;;5074068;28;20021;-83
2021/03/02 08:53:37;;;;;;;33.78;19.30;;;5.30;99.90;;;;;;5074161;28;20025;-83
2021/03/02 08:56:05;;;;;;;35.90;20.05;;;5.40;99.90;;;;;;5083270;28;20084;-84
2021/03/02 08:58:30;;;;;;;37.10;19.42;;;5.50;99.90;;;;;;5073560;28;20051;-84
2021/03/02 09:01:05;;;;;;;35.55;19.65;;;5.60;99.90;;;;;;5073594;28;20029;-83
2021/03/02 09:03:32;;;;;;;31.02;17.67;;;5.70;99.90;;;;;;5073970;28;20056;-84
2021/03/02 09:06:14;;;;;;;30.27;17.13;;;5.80;99.90;;;;;;5073821;28;20051;-84
2021/03/02 09:08:57;;;;;;;33.20;18.95;;;5.90;99.90;;;;;;5079902;28;20043;-83
2021/03/02 09:11:26;;;;;;;29.23;16.40;;;6.00;99.90;;;;;;5094299;28;20103;-83
2021/03/02 09:13:53;;;;;;;35.33;18.95;;;6.10;99.90;;;;;;5093796;28;20072;-86
2021/03/02 09:16:26;;;;;;;33.88;18.13;;;6.20;99.90;;;;;;5093190;28;20020;-85
2021/03/02 09:19:06;;;;;;;35.10;19.92;;;6.30;99.90;;;;;;5093563;28;20498;-81
2021/03/02 09:21:33;;;;;;;33.78;19.58;;;6.50;99.90;;;;;;5088201;28;20020;-82
2021/03/02 09:24:01;;;;;;;30.98;17.95;;;6.60;99.90;;;;;;5073647;28;20025;-83
2021/03/02 09:26:28;;;;;;;34.47;21.05;;;6.60;99.90;;;;;;5073562;28;20020;-83
2021/03/02 09:29:09;;;;;;;30.73;19.10;;;6.80;99.90;;;;;;5073423;28;20017;-83
2021/03/02 09:31:35;;;;;;;31.50;18.50;;;7.00;99.90;;;;;;5060104;28;20021;-84
2021/03/02 09:34:01;;;;;;;19.98;12.80;;;7.10;99.90;;;;;;5072580;28;20034;-86
2021/03/02 09:36:29;;;;;;;16.42;10.50;;;7.40;99.90;;;;;;5075166;28;20025;-84
2021/03/02 09:38:56;;;;;;;15.27;10.18;;;7.70;99.90;;;;;;5053148;28;20021;-83
2021/03/02 09:41:39;;;;;;;14.23;8.82;;;8.00;99.30;;;;;;5066664;28;20047;-84
2021/03/02 09:44:23;;;;;;;16.35;9.75;;;8.20;98.50;;;;;;5118859;27;20024;-85
2021/03/02 09:46:51;;;;;;;15.60;9.32;;;8.50;96.50;;;;;;5077483;28;20020;-83
2021/03/02 09:49:37;;;;;;;13.10;8.85;;;8.60;95.30;;;;;;5085049;28;20054;-83
2021/03/02 09:52:05;;;;;;;16.17;9.38;;;8.90;95.00;;;;;;5086234;28;20104;-83
2021/03/02 09:54:31;;;;;;;14.73;9.32;;;9.00;94.00;;;;;;5072972;28;20027;-84
2021/03/02 09:57:02;;;;;;;15.27;9.65;;;9.10;93.90;;;;;;5074133;28;20044;-85
2021/03/02 09:59:28;;;;;;;17.08;9.70;;;9.30;93.80;;;;;;5073390;28;20458;-85
2021/03/02 10:01:54;;;;;;;16.92;9.88;;;9.40;93.30;;;;;;5083419;28;20313;-86
2021/03/02 10:04:20;;;;;;;17.10;9.90;;;9.50;92.60;;;;;;5075514;28;20479;-85
2021/03/02 10:06:47;;;;;;;18.02;10.98;;;9.60;92.20;;;;;;5078117;28;20033;-85
2021/03/02 10:09:26;;;;;;;16.83;9.60;;;9.70;91.60;;;;;;5085096;28;20032;-84
2021/03/02 10:12:13;;;;;;;15.55;9.75;;;9.90;91.30;;;;;;5085636;28;20024;-85
2021/03/02 10:14:41;;;;;;;16.63;9.85;;;10.10;91.20;;;;;;5082974;28;20036;-85
2021/03/02 10:17:07;;;;;;;16.30;10.43;;;10.30;90.70;;;;;;5081239;28;20036;-83
2021/03/02 10:19:34;;;;;;;16.05;9.05;;;10.40;90.10;;;;;;5092248;28;20020;-83
2021/03/02 10:22:02;;;;;;;14.25;9.63;;;10.60;89.10;;;;;;5059815;28;20035;-83
2021/03/02 10:24:39;;;;;;;17.50;10.77;;;10.70;87.60;;;;;;5073720;28;20491;-81
2021/03/02 10:27:21;;;;;;;18.20;10.57;;;10.80;88.40;;;;;;5073585;28;20039;-83
2021/03/02 10:29:48;;;;;;;15.07;10.10;;;10.90;88.30;;;;;;5072120;28;20115;-83
2021/03/02 10:32:14;;;;;;;16.33;10.40;;;10.90;86.80;;;;;;5076241;28;20471;-82
2021/03/02 10:34:41;;;;;;;19.55;10.68;;;11.10;87.50;;;;;;5071539;28;20167;-82
2021/03/02 10:37:08;;;;;;;16.42;10.90;;;11.80;85.60;;;;;;5071141;28;20392;-82
2021/03/02 10:39:34;;;;;;;16.67;10.68;;;12.40;81.60;;;;;;5082790;28;20085;-82
2021/03/02 10:42:01;;;;;;;19.85;10.23;;;12.80;81.20;;;;;;5093245;28;20387;-81
2021/03/02 10:44:27;;;;;;;17.02;10.63;;;13.50;79.40;;;;;;5088279;28;20020;-82
2021/03/02 10:46:53;;;;;;;17.42;10.70;;;14.10;76.90;;;;;;5079463;28;20028;-88
2021/03/02 10:49:18;;;;;;;14.95;10.25;;;14.30;74.30;;;;;;5072366;28;20028;-86
2021/03/02 10:51:44;;;;;;;13.68;9.48;;;14.70;73.00;;;;;;5082543;28;20074;-86
2021/03/02 10:54:11;;;;;;;17.58;10.35;;;14.80;72.40;;;;;;5080942;28;20021;-86
2021/03/02 10:56:37;;;;;;;14.80;9.05;;;14.70;71.80;;;;;;5080761;28;20040;-88
2021/03/02 10:59:05;;;;;;;16.13;10.07;;;14.80;69.90;;;;;;5049437;28;20051;-86
2021/03/02 11:01:30;;;;;;;14.02;9.55;;;15.00;69.20;;;;;;5065414;28;20391;-87
2021/03/02 11:03:56;;;;;;;14.48;9.57;;;14.90;69.10;;;;;;5065849;28;20028;-87
2021/03/02 11:06:25;;;;;;;14.50;8.93;;;14.80;69.00;;;;;;5069874;28;20473;-86
2021/03/02 11:08:51;;;;;;;16.45;9.82;;;14.60;69.10;;;;;;5092127;28;20023;-87
2021/03/02 11:11:19;;;;;;;12.48;8.60;;;14.60;68.90;;;;;;5091879;28;20028;-88
2021/03/02 11:13:46;;;;;;;16.55;9.68;;;14.70;67.90;;;;;;5091936;28;20037;-87
2021/03/02 11:16:11;;;;;;;14.15;9.02;;;15.00;66.90;;;;;;5092748;28;20024;-85
2021/03/02 11:18:40;;;;;;;12.38;8.52;;;15.20;65.00;;;;;;5126076;27;20055;-87
2021/03/02 11:21:11;;;;;;;13.33;8.50;;;15.70;65.90;;;;;;5091704;28;20471;-87
2021/03/02 11:23:38;;;;;;;11.13;7.70;;;16.30;64.60;;;;;;5093642;28;20024;-88
2021/03/02 11:26:03;;;;;;;13.55;8.65;;;16.90;63.90;;;;;;5091998;28;20047;-86
2021/03/02 11:28:29;;;;;;;13.50;8.68;;;17.40;60.60;;;;;;5091767;28;20487;-87
2021/03/02 11:30:55;;;;;;;12.30;8.10;;;17.10;59.20;;;;;;5092788;28;20074;-88
2021/03/02 11:33:20;;;;;;;14.15;8.45;;;17.20;59.80;;;;;;5086940;28;20023;-87
2021/03/02 11:35:46;;;;;;;15.40;8.82;;;17.70;58.70;;;;;;5081366;28;20024;-83
2021/03/02 11:38:13;;;;;;;11.98;8.82;;;18.20;56.90;;;;;;5084485;28;20062;-84
2021/03/02 11:40:39;;;;;;;12.68;9.50;;;17.90;54.70;;;;;;5088188;28;20020;-84
2021/03/02 11:43:05;;;;;;;14.55;10.23;;;17.30;55.20;;;;;;5082819;28;20062;-84
2021/03/02 11:45:36;;;;;;;13.70;9.55;;;16.60;57.10;;;;;;5075471;28;20063;-85
2021/03/02 11:48:05;;;;;;;11.48;8.82;;;16.70;59.30;;;;;;5087030;28;20025;-84
2021/03/02 11:50:32;;;;;;;13.50;9.45;;;16.90;57.80;;;;;;5087288;28;20081;-84
2021/03/02 11:52:57;;;;;;;12.05;7.47;;;16.80;58.20;;;;;;5086747;28;20024;-85
2021/03/02 11:55:23;;;;;;;13.02;8.57;;;17.10;60.00;;;;;;5081479;28;20021;-86
2021/03/02 11:57:49;;;;;;;12.52;8.95;;;17.50;59.50;;;;;;5074135;28;20051;-85
2021/03/02 12:00:17;;;;;;;13.95;10.07;;;18.40;58.30;;;;;;5077460;28;20036;-84
2021/03/02 12:02:47;;;;;;;13.55;9.60;;;18.80;55.70;;;;;;5080245;28;20031;-86
2021/03/02 12:05:14;;;;;;;12.57;8.60;;;18.50;54.80;;;;;;5081434;28;20024;-84
2021/03/02 12:07:40;;;;;;;14.20;10.13;;;17.90;55.50;;;;;;5080204;28;20021;-83
2021/03/02 12:10:09;;;;;;;14.70;10.23;;;17.70;55.90;;;;;;5091809;28;20387;-84
2021/03/02 12:12:35;;;;;;;11.93;9.27;;;17.40;56.30;;;;;;5084561;28;20027;-84
2021/03/02 12:15:00;;;;;;;11.80;9.25;;;17.50;56.60;;;;;;5069865;28;20028;-85
2021/03/02 12:17:26;;;;;;;16.08;9.73;;;17.60;56.50;;;;;;5070570;28;20510;-85
2021/03/02 12:19:51;;;;;;;13.98;9.93;;;17.50;55.50;;;;;;5070634;28;20030;-84
2021/03/02 12:22:17;;;;;;;14.35;10.40;;;17.60;55.30;;;;;;5072556;28;20484;-84
2021/03/02 12:24:42;;;;;;;13.60;10.27;;;17.50;55.00;;;;;;5071543;28;20570;-84
2021/03/02 12:27:08;;;;;;;14.80;10.27;;;17.10;56.40;;;;;;5087735;28;20029;-84
2021/03/02 12:29:34;;;;;;;13.52;10.18;;;17.00;56.70;;;;;;5072229;28;20111;-84
2021/03/02 12:31:59;;;;;;;14.75;9.95;;;17.10;56.50;;;;;;5071477;28;20275;-85
2021/03/02 12:34:25;;;;;;;14.75;10.48;;;17.60;56.30;;;;;;5071881;28;20037;-85
2021/03/02 12:36:50;;;;;;;14.43;9.98;;;17.90;54.70;;;;;;5074365;28;20017;-83
2021/03/02 12:39:16;;;;;;;14.77;10.70;;;17.90;55.70;;;;;;5074974;28;20032;-84
2021/03/02 12:41:42;;;;;;;14.55;11.07;;;18.00;54.20;;;;;;5091745;28;20020;-83
2021/03/02 12:44:07;;;;;;;15.98;10.80;;;18.00;54.70;;;;;;5076047;28;20111;-84
2021/03/02 12:46:33;;;;;;;15.95;10.73;;;18.10;54.90;;;;;;5109356;28;20024;-84